Time;durP1;ratioP1;P1;durP2;ratioP2;P2;SDS_P1;SDS_P2;PMS_P1;PMS_P2;Temp;Humidity;BMP_temperature;BMP_pressure;BME280_temperature;BME280_humidity;BME280_pressure;Samples;Min_cycle;Max_cycle;Signal;HPM_P1;HPM_P2
2023/11/15 00:01:53;;;;;;;3.47;0.75;;;18.10;59.50;;;;;;6164171;23;20135;-82
2023/11/15 00:04:23;;;;;;;2.33;0.57;;;18.10;59.50;;;;;;6165351;23;20147;-81
2023/11/15 00:06:49;;;;;;;1.25;0.60;;;18.10;59.60;;;;;;6114962;23;20156;-81
2023/11/15 00:09:15;;;;;;;3.38;0.70;;;18.10;59.60;;;;;;6165484;23;20123;-82
2023/11/15 00:11:41;;;;;;;2.55;0.70;;;18.00;59.60;;;;;;6168235;23;20191;-81
2023/11/15 00:14:08;;;;;;;3.97;0.80;;;18.00;59.60;;;;;;6164333;23;20559;-82
2023/11/15 00:16:37;;;;;;;2.90;0.80;;;18.10;59.60;;;;;;6164641;23;20186;-81
2023/11/15 00:19:06;;;;;;;2.50;0.65;;;18.00;59.60;;;;;;6140789;23;20147;-82
2023/11/15 00:21:38;;;;;;;2.75;0.90;;;18.10;59.60;;;;;;6164753;23;20139;-81
2023/11/15 00:24:06;;;;;;;2.28;0.50;;;18.00;59.60;;;;;;6114833;23;20186;-81
2023/11/15 00:26:31;;;;;;;4.57;0.68;;;18.00;59.50;;;;;;6166336;23;20132;-82
2023/11/15 00:28:58;;;;;;;1.88;0.50;;;18.10;59.50;;;;;;6163629;23;20136;-81
2023/11/15 00:31:28;;;;;;;2.85;0.80;;;18.10;59.70;;;;;;6164148;23;20214;-81
2023/11/15 00:33:54;;;;;;;2.25;0.77;;;18.10;59.60;;;;;;6113778;23;20153;-81
2023/11/15 00:36:21;;;;;;;3.63;0.80;;;18.00;59.60;;;;;;6140895;23;20195;-81
2023/11/15 00:38:47;;;;;;;2.78;0.75;;;18.10;59.60;;;;;;6164435;23;20132;-81
2023/11/15 00:43:52;;;;;;;3.25;0.73;;;18.00;59.60;;;;;;6165305;23;20248;-81
2023/11/15 00:46:22;;;;;;;2.58;0.60;;;17.90;59.60;;;;;;6114390;23;20231;-81
2023/11/15 00:48:48;;;;;;;1.85;0.80;;;18.10;60.40;;;;;;6114839;23;20163;-81
2023/11/15 00:51:13;;;;;;;1.85;0.60;;;18.00;59.70;;;;;;6114955;23;20171;-81
2023/11/15 00:53:46;;;;;;;3.65;0.70;;;18.00;59.70;;;;;;6166181;23;20131;-81
2023/11/15 00:56:13;;;;;;;2.42;0.60;;;18.10;59.60;;;;;;6089154;23;20155;-81
2023/11/15 00:58:41;;;;;;;3.00;0.60;;;18.00;59.70;;;;;;6115143;23;20132;-81
2023/11/15 01:01:11;;;;;;;1.95;0.63;;;18.00;59.70;;;;;;6114588;23;20143;-82
2023/11/15 01:03:40;;;;;;;4.18;1.02;;;18.10;59.70;;;;;;6140045;23;20141;-82
2023/11/15 01:06:06;;;;;;;1.20;0.43;;;17.90;59.60;;;;;;6139210;23;20127;-82
2023/11/15 01:08:33;;;;;;;1.48;0.52;;;18.00;59.70;;;;;;6138594;23;20163;-82
2023/11/15 01:11:00;;;;;;;2.65;0.70;;;18.00;59.90;;;;;;6137785;23;20171;-81
2023/11/15 01:13:27;;;;;;;1.45;0.68;;;18.00;59.60;;;;;;6139309;23;20148;-81
2023/11/15 01:15:54;;;;;;;3.97;0.75;;;18.00;59.80;;;;;;6115128;23;20174;-81
2023/11/15 01:18:21;;;;;;;2.90;0.90;;;18.00;59.70;;;;;;6166468;23;20132;-81
2023/11/15 01:23:28;;;;;;;1.35;0.55;;;18.00;59.80;;;;;;6219397;23;20201;-82
2023/11/15 01:25:54;;;;;;;2.67;0.60;;;17.90;59.80;;;;;;6197450;23;20134;-82
2023/11/15 01:30:55;;;;;;;1.42;0.60;;;18.00;59.80;;;;;;6161118;23;20670;-81
2023/11/15 01:33:22;;;;;;;1.70;0.60;;;18.00;59.90;;;;;;6165889;23;20151;-81
2023/11/15 01:35:48;;;;;;;2.53;0.52;;;18.00;59.90;;;;;;6164656;23;20166;-81
2023/11/15 01:38:16;;;;;;;0.50;0.50;;;18.00;59.70;;;;;;6165188;23;20135;-81
2023/11/15 01:40:48;;;;;;;1.10;0.57;;;18.00;59.70;;;;;;6163731;23;20199;-81
2023/11/15 01:43:16;;;;;;;0.82;0.45;;;18.00;59.60;;;;;;6138778;23;20159;-81
2023/11/15 01:45:46;;;;;;;1.98;0.45;;;17.90;59.50;;;;;;6164052;23;20132;-81
2023/11/15 01:48:14;;;;;;;3.03;0.70;;;17.90;59.70;;;;;;6165527;23;20146;-82
2023/11/15 01:50:39;;;;;;;1.65;0.70;;;18.00;59.80;;;;;;6165507;23;20198;-82
2023/11/15 01:53:05;;;;;;;2.95;0.50;;;18.00;60.50;;;;;;6164593;23;20151;-81
2023/11/15 01:55:31;;;;;;;2.05;0.70;;;17.90;59.80;;;;;;6165065;23;20132;-81
2023/11/15 01:57:57;;;;;;;1.73;0.57;;;18.10;59.80;;;;;;6166638;23;20506;-81
2023/11/15 02:00:24;;;;;;;0.85;0.55;;;18.00;59.90;;;;;;6164887;23;20633;-82
2023/11/15 02:02:50;;;;;;;1.27;0.63;;;18.00;59.70;;;;;;6139956;23;20471;-81
2023/11/15 02:05:15;;;;;;;1.83;0.55;;;17.90;59.80;;;;;;6165400;23;20150;-81
2023/11/15 02:07:43;;;;;;;1.35;0.60;;;18.00;59.80;;;;;;6165694;23;20132;-82
2023/11/15 02:10:09;;;;;;;3.45;1.00;;;17.90;59.70;;;;;;6142259;23;20136;-81
2023/11/15 02:12:37;;;;;;;0.57;0.40;;;17.90;59.90;;;;;;6140428;23;20179;-81
2023/11/15 02:15:04;;;;;;;0.80;0.43;;;17.90;59.90;;;;;;6138592;23;20174;-81
2023/11/15 02:17:33;;;;;;;1.52;0.70;;;17.90;59.80;;;;;;6141375;23;20144;-82
2023/11/15 02:19:59;;;;;;;1.77;0.80;;;17.90;59.90;;;;;;6114784;23;20151;-82
2023/11/15 02:22:26;;;;;;;1.50;0.55;;;17.90;59.80;;;;;;6164222;23;20150;-82
2023/11/15 02:24:52;;;;;;;0.60;0.40;;;17.90;59.90;;;;;;6165103;23;20215;-82
2023/11/15 02:27:22;;;;;;;1.48;0.70;;;17.80;59.70;;;;;;6164357;23;20132;-82
2023/11/15 02:29:48;;;;;;;1.13;0.60;;;17.90;59.80;;;;;;6166335;23;20209;-81
2023/11/15 02:32:13;;;;;;;3.33;0.80;;;17.90;59.80;;;;;;6139115;23;20187;-81
2023/11/15 02:34:42;;;;;;;2.05;0.50;;;17.90;59.80;;;;;;6163595;23;20135;-82
2023/11/15 02:37:09;;;;;;;2.28;0.63;;;17.90;59.90;;;;;;6165798;23;20131;-82
2023/11/15 02:39:34;;;;;;;0.55;0.50;;;17.90;59.80;;;;;;6165822;23;20128;-82
2023/11/15 02:42:01;;;;;;;1.65;0.50;;;17.90;59.90;;;;;;6166430;23;20136;-82
2023/11/15 02:44:28;;;;;;;1.35;0.80;;;17.90;59.90;;;;;;6140383;23;20563;-82
2023/11/15 02:46:54;;;;;;;2.15;0.70;;;17.90;59.80;;;;;;6166246;23;20140;-81
2023/11/15 02:49:23;;;;;;;2.60;0.63;;;17.90;59.80;;;;;;6164405;23;20143;-81
2023/11/15 02:51:49;;;;;;;1.45;0.70;;;17.90;59.90;;;;;;6138683;23;20492;-81
2023/11/15 02:54:17;;;;;;;1.65;0.50;;;17.90;59.80;;;;;;6164191;23;20267;-81
2023/11/15 02:56:42;;;;;;;0.70;0.50;;;17.90;59.80;;;;;;6164554;23;20132;-81
2023/11/15 03:01:36;;;;;;;0.85;0.50;;;17.90;59.80;;;;;;6162964;23;20590;-82
2023/11/15 03:04:01;;;;;;;0.50;0.50;;;17.90;59.80;;;;;;6164802;23;20595;-81
2023/11/15 03:06:28;;;;;;;2.63;0.70;;;17.90;59.90;;;;;;6164395;23;20127;-81
2023/11/15 03:15:38;;;;;;;0.85;0.52;;;17.90;59.90;;;;;;6164567;23;20187;-81
2023/11/15 03:18:04;;;;;;;2.03;0.63;;;17.90;60.80;;;;;;6165670;23;20187;-81
2023/11/15 03:20:31;;;;;;;0.82;0.40;;;17.90;59.80;;;;;;6162847;23;20140;-81
2023/11/15 03:22:58;;;;;;;2.70;0.45;;;17.90;59.90;;;;;;6138584;23;20156;-81
2023/11/15 03:25:25;;;;;;;1.00;0.70;;;17.90;59.90;;;;;;6164128;23;20219;-81
2023/11/15 03:27:52;;;;;;;2.33;0.55;;;17.90;59.90;;;;;;6164137;23;20136;-81
2023/11/15 03:30:20;;;;;;;1.00;0.55;;;17.90;60.00;;;;;;6165386;23;20135;-81
2023/11/15 03:32:46;;;;;;;1.98;0.57;;;17.80;60.00;;;;;;6164664;23;20144;-81
2023/11/15 03:35:18;;;;;;;2.63;0.80;;;17.80;59.90;;;;;;6139910;23;20144;-81
2023/11/15 03:37:44;;;;;;;1.02;0.50;;;17.90;59.80;;;;;;6114372;23;20152;-81
2023/11/15 03:40:10;;;;;;;1.75;0.60;;;17.80;59.80;;;;;;6163716;23;20143;-82
2023/11/15 03:42:37;;;;;;;1.25;0.55;;;17.80;59.90;;;;;;6163158;23;20505;-82
2023/11/15 03:45:04;;;;;;;0.98;0.50;;;17.90;59.90;;;;;;6163328;23;20554;-82
2023/11/15 03:47:31;;;;;;;2.15;0.60;;;17.80;59.80;;;;;;6163021;23;20132;-82
2023/11/15 03:49:58;;;;;;;1.33;0.57;;;17.80;59.80;;;;;;6162923;23;20155;-82
2023/11/15 03:52:26;;;;;;;1.35;0.80;;;17.80;59.90;;;;;;6164786;23;20222;-82
2023/11/15 03:54:52;;;;;;;1.15;0.52;;;17.80;60.00;;;;;;6163604;23;20147;-82
2023/11/15 03:57:18;;;;;;;2.13;0.55;;;17.80;59.80;;;;;;6163824;23;20142;-82
2023/11/15 03:59:44;;;;;;;2.80;0.50;;;17.80;60.00;;;;;;6163303;23;20143;-82
2023/11/15 04:02:11;;;;;;;1.77;0.55;;;17.80;59.80;;;;;;6163662;23;20140;-82
2023/11/15 04:04:37;;;;;;;0.55;0.47;;;17.80;59.90;;;;;;6162424;23;20206;-81
2023/11/15 04:07:03;;;;;;;1.23;0.60;;;17.80;60.00;;;;;;6163272;23;20462;-81
2023/11/15 04:09:32;;;;;;;1.48;0.63;;;17.80;59.80;;;;;;6163922;23;20178;-81
2023/11/15 04:11:58;;;;;;;1.08;0.40;;;17.80;60.00;;;;;;6162664;23;20171;-81
2023/11/15 04:16:50;;;;;;;1.00;0.50;;;17.80;59.80;;;;;;6164316;23;20203;-81
2023/11/15 04:19:15;;;;;;;1.00;0.40;;;17.80;59.80;;;;;;6164617;23;20148;-81
2023/11/15 04:21:41;;;;;;;1.23;0.65;;;17.90;59.90;;;;;;6163596;23;20132;-81
2023/11/15 04:24:07;;;;;;;3.70;0.73;;;17.80;59.80;;;;;;6138457;23;20218;-82
2023/11/15 04:26:33;;;;;;;0.50;0.43;;;17.80;59.90;;;;;;6165064;23;20196;-82
2023/11/15 04:28:59;;;;;;;1.25;0.50;;;17.90;59.80;;;;;;6165508;23;20131;-81
2023/11/15 04:31:25;;;;;;;1.55;0.50;;;17.80;59.80;;;;;;6165582;23;20241;-81
2023/11/15 04:33:59;;;;;;;1.80;0.50;;;17.80;59.80;;;;;;6162761;23;20123;-82
2023/11/15 04:36:25;;;;;;;1.15;0.43;;;17.80;59.80;;;;;;6115852;23;20237;-82
2023/11/15 04:38:51;;;;;;;1.52;0.68;;;17.90;59.80;;;;;;6138505;23;20530;-82
2023/11/15 04:41:20;;;;;;;2.38;0.70;;;17.80;59.90;;;;;;6163220;23;20214;-82
2023/11/15 04:43:49;;;;;;;0.60;0.60;;;17.80;59.80;;;;;;6163107;23;20214;-82
2023/11/15 04:46:16;;;;;;;0.70;0.52;;;17.70;59.90;;;;;;6138754;23;20147;-82
2023/11/15 04:48:41;;;;;;;1.65;0.60;;;17.70;59.80;;;;;;6163589;23;20548;-82
2023/11/15 04:51:07;;;;;;;1.13;0.50;;;17.80;59.90;;;;;;6165015;23;20170;-82
2023/11/15 04:53:37;;;;;;;1.42;0.60;;;17.80;59.80;;;;;;6164509;23;20151;-82
2023/11/15 04:56:04;;;;;;;1.17;0.70;;;17.80;59.90;;;;;;6163434;23;20139;-82
2023/11/15 04:58:31;;;;;;;2.25;0.82;;;17.80;59.90;;;;;;6161352;23;20207;-81
2023/11/15 05:00:57;;;;;;;1.15;0.57;;;17.80;59.90;;;;;;6163599;23;20162;-82
2023/11/15 05:03:25;;;;;;;0.50;0.50;;;17.70;59.80;;;;;;6138045;23;20143;-82
2023/11/15 05:05:51;;;;;;;1.50;0.40;;;17.80;59.80;;;;;;6138455;23;20591;-81
2023/11/15 05:08:20;;;;;;;1.45;0.68;;;17.80;59.80;;;;;;6137668;23;20456;-81
2023/11/15 05:10:46;;;;;;;0.47;0.40;;;17.80;59.90;;;;;;6163046;23;20195;-81
2023/11/15 05:13:11;;;;;;;1.63;0.60;;;17.80;59.90;;;;;;6164768;23;20187;-81
2023/11/15 05:15:38;;;;;;;1.58;0.60;;;17.80;59.90;;;;;;6162959;23;20151;-81
2023/11/15 05:18:04;;;;;;;1.23;0.60;;;17.80;59.90;;;;;;6163321;23;20131;-81
2023/11/15 05:20:29;;;;;;;1.70;0.70;;;17.80;59.90;;;;;;6164119;23;20209;-81
2023/11/15 05:22:55;;;;;;;0.55;0.50;;;17.80;59.90;;;;;;6140394;23;20152;-81
2023/11/15 05:25:21;;;;;;;0.90;0.50;;;17.80;59.90;;;;;;6164720;23;20136;-80
2023/11/15 05:27:47;;;;;;;2.65;0.60;;;17.80;60.00;;;;;;6165192;23;20137;-81
2023/11/15 05:30:14;;;;;;;1.13;0.50;;;17.80;59.80;;;;;;6164668;23;20220;-81
2023/11/15 05:32:43;;;;;;;0.60;0.50;;;17.80;59.90;;;;;;6165390;23;20246;-82
2023/11/15 05:35:10;;;;;;;1.25;0.60;;;17.80;59.90;;;;;;6165366;23;20139;-81
2023/11/15 05:37:40;;;;;;;1.02;0.60;;;17.80;59.90;;;;;;6140007;23;20158;-81
2023/11/15 05:40:06;;;;;;;0.93;0.60;;;17.80;59.90;;;;;;6138604;23;20151;-81
2023/11/15 05:42:34;;;;;;;0.80;0.65;;;17.80;59.90;;;;;;6140204;23;20214;-81
2023/11/15 05:47:26;;;;;;;1.10;0.60;;;17.80;60.00;;;;;;6166487;23;20199;-82
2023/11/15 05:49:53;;;;;;;1.33;0.50;;;17.80;60.00;;;;;;6166953;23;20544;-81
2023/11/15 05:52:21;;;;;;;1.17;0.50;;;17.70;59.90;;;;;;6163936;23;20210;-82
2023/11/15 05:54:48;;;;;;;0.75;0.60;;;17.80;59.90;;;;;;6140812;23;20151;-81
2023/11/15 05:57:14;;;;;;;0.70;0.50;;;17.80;59.90;;;;;;6149790;23;20281;-82
2023/11/15 06:02:05;;;;;;;0.90;0.60;;;17.80;59.80;;;;;;6131032;23;20247;-82
2023/11/15 06:04:32;;;;;;;1.10;0.40;;;17.80;59.70;;;;;;6107304;23;20133;-81
2023/11/15 06:06:59;;;;;;;1.15;0.50;;;17.80;59.80;;;;;;6106972;23;20151;-81
2023/11/15 06:09:26;;;;;;;0.65;0.57;;;17.80;59.80;;;;;;6109014;23;20184;-81
2023/11/15 06:11:57;;;;;;;2.03;0.55;;;17.80;59.60;;;;;;6106342;23;20180;-81
2023/11/15 06:14:23;;;;;;;0.65;0.40;;;17.80;59.80;;;;;;6106189;23;20204;-81
2023/11/15 06:16:48;;;;;;;1.95;0.52;;;17.80;59.80;;;;;;6106135;23;20133;-81
2023/11/15 06:19:15;;;;;;;0.75;0.50;;;17.80;59.80;;;;;;6106562;23;20464;-81
2023/11/15 06:21:43;;;;;;;0.85;0.60;;;17.80;59.80;;;;;;6106467;23;20133;-81
2023/11/15 06:24:09;;;;;;;1.08;0.55;;;17.80;60.60;;;;;;6082721;23;20145;-81
2023/11/15 06:26:37;;;;;;;0.85;0.70;;;17.80;59.80;;;;;;6105251;23;20155;-82
2023/11/15 06:29:04;;;;;;;0.77;0.68;;;17.80;60.70;;;;;;6082556;23;20157;-81
2023/11/15 06:31:32;;;;;;;1.33;0.50;;;17.70;59.90;;;;;;6105512;23;20161;-81
2023/11/15 06:36:39;;;;;;;1.20;0.70;;;17.70;59.80;;;;;;6160488;23;20215;-83
2023/11/15 06:39:08;;;;;;;1.02;0.60;;;17.80;59.80;;;;;;6165037;23;20124;-83
2023/11/15 06:41:38;;;;;;;1.13;0.70;;;17.80;59.80;;;;;;6141093;23;20595;-82
2023/11/15 06:44:05;;;;;;;2.05;0.60;;;17.70;59.80;;;;;;6164274;23;20128;-82
2023/11/15 06:46:38;;;;;;;1.50;0.68;;;17.80;59.40;;;;;;6165558;23;20128;-82
2023/11/15 06:49:05;;;;;;;2.45;0.70;;;17.80;59.80;;;;;;6134509;23;20251;-82
2023/11/15 06:51:31;;;;;;;1.33;0.50;;;17.80;59.80;;;;;;6134823;23;20174;-82
2023/11/15 06:53:57;;;;;;;1.80;0.80;;;17.80;59.80;;;;;;6110975;23;20520;-82
2023/11/15 06:56:23;;;;;;;1.52;0.65;;;17.80;59.80;;;;;;6113846;23;20144;-81
2023/11/15 06:58:49;;;;;;;1.20;0.60;;;17.70;59.80;;;;;;6137394;23;20128;-81
2023/11/15 07:01:16;;;;;;;2.75;0.52;;;17.80;59.60;;;;;;6135638;23;20166;-81
2023/11/15 07:03:43;;;;;;;2.30;0.60;;;17.80;59.40;;;;;;6139325;23;20136;-81
2023/11/15 07:06:10;;;;;;;2.58;0.60;;;17.80;59.20;;;;;;6139099;23;20135;-81
2023/11/15 07:08:36;;;;;;;1.67;0.55;;;17.90;59.30;;;;;;6110330;23;20152;-81
2023/11/15 07:11:07;;;;;;;3.15;0.50;;;17.90;59.00;;;;;;6112640;23;20618;-82
2023/11/15 07:13:40;;;;;;;0.63;0.40;;;17.90;58.90;;;;;;6114972;23;20196;-82
2023/11/15 07:16:30;;;;;;;2.42;0.52;;;18.00;58.60;;;;;;6089079;23;20152;-80
2023/11/15 07:19:07;;;;;;;1.88;0.80;;;18.10;58.30;;;;;;6112604;23;20140;-84
2023/11/15 07:21:35;;;;;;;2.28;0.77;;;18.10;58.30;;;;;;6054436;23;20212;-84
2023/11/15 07:24:02;;;;;;;0.50;0.50;;;18.20;58.20;;;;;;6100435;23;20156;-85
2023/11/15 07:26:35;;;;;;;2.00;0.47;;;18.10;58.10;;;;;;6079126;23;20255;-85
2023/11/15 07:29:06;;;;;;;0.45;0.43;;;18.20;58.00;;;;;;6052327;23;20196;-85
2023/11/15 07:31:32;;;;;;;0.45;0.35;;;18.20;57.80;;;;;;6073923;23;20631;-84
2023/11/15 07:34:18;;;;;;;;;;;;;;;;;;;;;
2023/11/15 07:40:28;;;;;;;0.65;0.50;;;18.10;58.20;;;;;;5934742;24;20209;-86
2023/11/15 07:43:14;;;;;;;1.58;0.55;;;18.10;57.80;;;;;;5931937;24;20640;-86
2023/11/15 07:45:53;;;;;;;0.45;0.45;;;18.10;58.10;;;;;;5910046;24;20164;-86
2023/11/15 07:48:48;;;;;;;0.70;0.40;;;18.20;57.90;;;;;;5946433;24;20580;-86
2023/11/15 07:51:23;;;;;;;0.52;0.50;;;18.20;58.10;;;;;;5978744;24;20231;-86
2023/11/15 07:57:47;;;;;;;1.50;0.55;;;18.10;58.40;;;;;;5880099;24;20162;-85
2023/11/15 08:00:15;;;;;;;0.90;0.50;;;18.20;57.90;;;;;;5853992;24;20162;-83
2023/11/15 08:02:55;;;;;;;2.53;0.50;;;18.30;57.40;;;;;;5855228;24;20200;-85
2023/11/15 08:05:33;;;;;;;3.30;0.70;;;18.40;57.30;;;;;;5886325;24;20177;-84
2023/11/15 08:07:58;;;;;;;2.15;0.60;;;18.40;57.50;;;;;;5877320;24;20263;-83
2023/11/15 08:10:31;;;;;;;0.52;0.40;;;18.40;57.40;;;;;;5859014;24;20159;-84
2023/11/15 08:13:07;;;;;;;4.78;0.77;;;18.30;57.50;;;;;;5859606;24;20158;-83
2023/11/15 08:15:42;;;;;;;1.63;0.60;;;18.30;57.80;;;;;;5835477;24;20166;-84
2023/11/15 08:18:08;;;;;;;1.38;0.50;;;18.40;57.30;;;;;;5857387;24;20150;-84
2023/11/15 08:20:53;;;;;;;2.75;0.50;;;18.30;57.60;;;;;;5857581;24;20159;-84
2023/11/15 08:23:23;;;;;;;1.02;0.63;;;18.30;57.90;;;;;;5857883;24;20549;-83
2023/11/15 08:25:52;;;;;;;1.17;0.50;;;18.30;57.70;;;;;;5856964;24;20513;-83
2023/11/15 08:28:20;;;;;;;0.60;0.40;;;18.40;57.40;;;;;;5835192;24;20155;-84
2023/11/15 08:30:48;;;;;;;0.68;0.40;;;18.40;57.60;;;;;;5857393;24;20191;-85
2023/11/15 08:33:18;;;;;;;1.05;0.50;;;18.40;58.10;;;;;;5879769;24;20155;-84
2023/11/15 08:35:44;;;;;;;1.33;0.40;;;18.30;57.20;;;;;;6016840;23;20149;-84
2023/11/15 08:38:10;;;;;;;1.08;0.57;;;18.40;56.70;;;;;;6031923;23;20144;-84
2023/11/15 08:40:56;;;;;;;0.50;0.40;;;18.40;57.60;;;;;;6056010;23;20164;-84
2023/11/15 08:43:22;;;;;;;1.33;0.55;;;18.40;57.30;;;;;;6056499;23;20141;-85
2023/11/15 08:45:51;;;;;;;1.02;0.30;;;18.40;57.20;;;;;;6056275;23;20152;-84
2023/11/15 08:48:21;;;;;;;1.02;0.60;;;18.40;57.00;;;;;;6047843;23;20202;-85
2023/11/15 08:50:47;;;;;;;2.90;0.60;;;18.40;56.70;;;;;;6089425;23;20241;-85
2023/11/15 08:53:18;;;;;;;0.50;0.40;;;18.50;57.30;;;;;;6115458;23;20156;-85
2023/11/15 08:55:45;;;;;;;0.47;0.47;;;18.40;57.10;;;;;;6112697;23;20175;-84
2023/11/15 08:58:14;;;;;;;1.70;0.40;;;18.40;56.70;;;;;;6114141;23;20152;-84
2023/11/15 09:00:46;;;;;;;1.15;0.60;;;18.50;57.00;;;;;;6113628;23;20484;-83
2023/11/15 09:03:16;;;;;;;2.47;0.50;;;18.50;57.20;;;;;;6115024;23;20162;-83
2023/11/15 09:05:44;;;;;;;0.93;0.60;;;18.50;56.90;;;;;;6115087;23;20151;-84
2023/11/15 09:08:13;;;;;;;1.73;0.75;;;18.50;57.00;;;;;;6113730;23;20151;-84
2023/11/15 09:10:39;;;;;;;1.10;0.45;;;18.50;56.90;;;;;;6113912;23;20144;-84
2023/11/15 09:13:09;;;;;;;1.10;0.60;;;18.50;57.30;;;;;;6115040;23;20140;-84
2023/11/15 09:15:37;;;;;;;1.85;0.50;;;18.50;57.00;;;;;;6114676;23;20162;-85
2023/11/15 09:18:10;;;;;;;2.97;0.40;;;18.50;57.30;;;;;;6114905;23;20160;-85
2023/11/15 09:20:37;;;;;;;0.93;0.40;;;18.50;56.90;;;;;;6139063;23;20125;-84
2023/11/15 09:23:13;;;;;;;3.00;0.50;;;18.50;57.30;;;;;;6106232;23;20635;-84
2023/11/15 09:25:39;;;;;;;0.35;0.30;;;18.50;56.90;;;;;;6107792;23;20156;-84
2023/11/15 09:28:05;;;;;;;0.77;0.50;;;18.60;56.70;;;;;;6083707;23;20164;-85
2023/11/15 09:30:32;;;;;;;0.88;0.60;;;18.50;56.90;;;;;;6060512;23;20145;-84
2023/11/15 09:33:06;;;;;;;1.05;0.50;;;18.50;56.70;;;;;;6083866;23;20149;-84
2023/11/15 09:35:36;;;;;;;3.22;0.50;;;18.50;56.70;;;;;;6108496;23;20148;-86
2023/11/15 09:38:04;;;;;;;0.60;0.40;;;18.60;56.60;;;;;;6060454;23;20296;-84
2023/11/15 09:40:30;;;;;;;0.85;0.40;;;18.60;56.90;;;;;;6108218;23;20133;-84
2023/11/15 09:43:00;;;;;;;1.70;0.40;;;18.50;56.80;;;;;;6083588;23;20156;-84
2023/11/15 09:45:32;;;;;;;1.75;0.43;;;18.50;56.80;;;;;;6060857;23;20149;-85
2023/11/15 09:48:02;;;;;;;1.20;0.50;;;18.50;57.10;;;;;;6048650;23;20197;-85
2023/11/15 09:50:33;;;;;;;1.73;0.63;;;18.50;56.60;;;;;;6054459;23;20240;-86
2023/11/15 09:53:05;;;;;;;1.98;0.50;;;18.50;57.00;;;;;;6025778;23;20154;-86
2023/11/15 09:55:34;;;;;;;2.33;0.55;;;18.50;57.20;;;;;;6025907;23;20224;-84
2023/11/15 09:58:00;;;;;;;2.75;0.95;;;18.50;57.20;;;;;;6025248;23;20154;-85
2023/11/15 10:00:33;;;;;;;3.47;0.70;;;18.50;57.40;;;;;;6021769;23;20162;-85
2023/11/15 10:03:01;;;;;;;3.20;0.70;;;18.50;57.30;;;;;;6023843;23;20153;-85
2023/11/15 10:05:42;;;;;;;2.55;0.60;;;18.50;57.60;;;;;;6023448;23;20154;-82
2023/11/15 10:08:11;;;;;;;4.38;0.70;;;18.40;57.50;;;;;;5963197;24;20153;-83
2023/11/15 10:10:37;;;;;;;4.07;0.57;;;18.40;57.30;;;;;;5961941;24;20169;-83
2023/11/15 10:13:13;;;;;;;3.10;0.80;;;18.50;57.90;;;;;;5963494;24;20183;-84
2023/11/15 10:15:44;;;;;;;7.35;0.70;;;18.50;57.10;;;;;;5965596;24;20155;-82
2023/11/15 10:18:11;;;;;;;3.75;0.73;;;18.60;57.40;;;;;;5965787;24;20224;-84
2023/11/15 10:20:41;;;;;;;4.25;0.77;;;18.50;57.80;;;;;;5966133;24;20160;-83
2023/11/15 10:23:13;;;;;;;6.47;0.90;;;18.50;57.80;;;;;;5965832;24;20201;-84
2023/11/15 10:25:47;;;;;;;5.90;1.00;;;18.50;57.60;;;;;;5941146;24;20248;-83
2023/11/15 10:28:40;;;;;;;7.75;0.80;;;18.50;58.00;;;;;;5965412;24;20167;-83
2023/11/15 10:31:21;;;;;;;5.10;1.20;;;18.50;57.90;;;;;;6001572;23;20196;-85
2023/11/15 10:33:53;;;;;;;7.93;1.42;;;18.50;57.70;;;;;;5997476;23;20161;-82
2023/11/15 10:36:21;;;;;;;10.77;0.80;;;18.50;57.60;;;;;;5996594;23;20203;-82
2023/11/15 10:38:55;;;;;;;9.68;1.15;;;18.50;57.80;;;;;;5985063;24;20159;-82
2023/11/15 10:41:24;;;;;;;8.20;0.85;;;18.50;57.90;;;;;;5968860;24;20242;-83
2023/11/15 10:43:51;;;;;;;6.68;0.95;;;18.50;57.90;;;;;;5969480;24;20181;-82
2023/11/15 10:46:33;;;;;;;7.75;0.90;;;18.50;57.60;;;;;;5966943;24;20151;-83
2023/11/15 10:49:00;;;;;;;6.53;0.82;;;18.50;57.60;;;;;;5988529;23;20280;-82
2023/11/15 10:51:40;;;;;;;4.55;0.90;;;18.40;57.50;;;;;;6041453;23;20208;-81
2023/11/15 10:54:08;;;;;;;5.53;0.80;;;18.50;57.60;;;;;;6078059;23;20153;-82
2023/11/15 10:56:34;;;;;;;4.63;0.95;;;18.50;57.50;;;;;;6078650;23;20148;-83
2023/11/15 10:59:00;;;;;;;3.53;0.68;;;18.50;57.50;;;;;;6103232;23;20156;-83
2023/11/15 11:01:31;;;;;;;5.55;0.80;;;18.50;57.60;;;;;;6078068;23;20213;-82
2023/11/15 11:03:56;;;;;;;4.68;0.70;;;18.60;57.60;;;;;;6055135;23;20517;-82
2023/11/15 11:06:48;;;;;;;3.42;0.82;;;18.60;57.50;;;;;;6106846;23;20184;-85
2023/11/15 11:09:31;;;;;;;3.20;0.60;;;18.60;57.50;;;;;;6112338;23;20141;-84
2023/11/15 11:12:11;;;;;;;4.28;0.68;;;18.60;57.60;;;;;;6113567;23;20294;-87
2023/11/15 11:14:41;;;;;;;5.35;0.82;;;18.50;57.70;;;;;;6119709;23;20225;-86
2023/11/15 11:17:29;;;;;;;2.97;0.93;;;18.50;57.70;;;;;;6115884;23;20151;-85
2023/11/15 11:19:57;;;;;;;5.10;0.70;;;18.40;57.70;;;;;;6120249;23;20227;-85
2023/11/15 11:22:25;;;;;;;5.55;0.70;;;18.50;57.60;;;;;;6118904;23;20159;-84
2023/11/15 11:25:23;;;;;;;6.95;0.90;;;18.50;57.50;;;;;;6141620;23;20673;-84
2023/11/15 11:27:54;;;;;;;1.83;0.50;;;18.50;57.60;;;;;;6073642;23;20159;-86
2023/11/15 11:30:23;;;;;;;2.03;0.63;;;18.50;57.30;;;;;;6125320;23;20156;-82
2023/11/15 11:32:50;;;;;;;4.63;0.88;;;18.50;57.30;;;;;;6121240;23;20262;-85
2023/11/15 11:35:30;;;;;;;2.40;0.50;;;18.50;57.40;;;;;;6141803;23;20136;-85
2023/11/15 11:38:04;;;;;;;2.85;0.60;;;18.50;57.60;;;;;;6120282;23;20143;-84
2023/11/15 11:40:34;;;;;;;2.22;0.63;;;18.40;57.40;;;;;;6093575;23;20151;-83
2023/11/15 11:43:21;;;;;;;2.10;0.60;;;18.50;57.30;;;;;;6140227;23;20132;-84
2023/11/15 11:45:52;;;;;;;5.68;0.57;;;18.40;57.30;;;;;;6143786;23;20127;-85
2023/11/15 11:48:20;;;;;;;2.78;0.60;;;18.50;57.60;;;;;;6115412;23;20635;-85
2023/11/15 11:50:58;;;;;;;3.78;0.70;;;18.40;57.30;;;;;;6113620;23;20144;-84
2023/11/15 11:53:25;;;;;;;0.70;0.40;;;18.50;57.20;;;;;;6138878;23;20216;-85
2023/11/15 11:55:54;;;;;;;2.40;0.60;;;18.50;57.30;;;;;;6111566;23;20152;-85
2023/11/15 11:58:22;;;;;;;1.23;0.57;;;18.50;57.30;;;;;;6133643;23;20337;-84
2023/11/15 12:00:48;;;;;;;2.28;0.47;;;18.50;57.30;;;;;;6110285;23;20144;-84
2023/11/15 12:03:15;;;;;;;3.20;0.63;;;18.50;57.00;;;;;;6112234;23;20532;-84
2023/11/15 12:05:41;;;;;;;3.85;0.65;;;18.50;57.00;;;;;;6134843;23;20152;-85
2023/11/15 12:08:07;;;;;;;2.42;0.60;;;18.60;56.90;;;;;;6111934;23;20591;-85
2023/11/15 12:10:40;;;;;;;1.00;0.43;;;18.50;57.20;;;;;;6118337;23;20525;-86
2023/11/15 12:13:13;;;;;;;2.03;0.52;;;18.50;57.10;;;;;;6117247;23;20200;-86
2023/11/15 12:15:43;;;;;;;3.80;0.65;;;18.50;57.30;;;;;;6089150;23;20163;-85
2023/11/15 12:18:12;;;;;;;7.03;0.70;;;18.50;57.20;;;;;;6112179;23;20152;-84
2023/11/15 12:20:39;;;;;;;5.88;0.65;;;18.50;57.20;;;;;;6083720;23;20226;-84
2023/11/15 12:23:08;;;;;;;5.35;0.70;;;18.50;57.30;;;;;;6124285;23;20215;-83
2023/11/15 12:25:51;;;;;;;4.50;0.60;;;18.50;57.30;;;;;;6076091;23;20136;-85
2023/11/15 12:28:21;;;;;;;3.90;0.50;;;18.50;57.10;;;;;;6098776;23;20203;-84
2023/11/15 12:30:47;;;;;;;6.88;0.80;;;18.50;57.00;;;;;;6051245;23;20144;-84
2023/11/15 12:33:16;;;;;;;8.85;0.70;;;18.60;57.00;;;;;;6074866;23;20219;-83
2023/11/15 12:35:42;;;;;;;3.25;0.85;;;18.50;57.10;;;;;;6074681;23;20133;-84
2023/11/15 12:38:09;;;;;;;3.35;0.68;;;18.50;57.00;;;;;;6097008;23;20202;-85
2023/11/15 12:40:37;;;;;;;5.30;0.57;;;18.50;56.90;;;;;;6073930;23;20152;-84
2023/11/15 12:43:19;;;;;;;1.98;0.52;;;18.60;56.70;;;;;;6099490;23;20152;-84
2023/11/15 12:45:45;;;;;;;0.93;0.50;;;18.60;56.90;;;;;;6126168;23;20132;-84
2023/11/15 12:48:10;;;;;;;2.28;0.50;;;18.50;56.60;;;;;;6078424;23;20210;-85
2023/11/15 12:50:38;;;;;;;2.38;0.60;;;18.60;56.70;;;;;;6127977;23;20227;-84
2023/11/15 12:53:06;;;;;;;3.17;0.32;;;18.50;56.80;;;;;;6103308;23;20152;-84
2023/11/15 12:55:49;;;;;;;2.05;0.50;;;18.40;56.90;;;;;;6098107;23;20163;-84
2023/11/15 12:58:20;;;;;;;4.80;0.60;;;18.50;57.00;;;;;;6127994;23;20479;-84
2023/11/15 13:00:57;;;;;;;2.00;0.63;;;18.50;56.70;;;;;;6102485;23;20172;-84
2023/11/15 13:03:26;;;;;;;3.45;0.50;;;18.40;56.70;;;;;;6127665;23;20186;-84
2023/11/15 13:05:53;;;;;;;0.82;0.30;;;18.50;56.90;;;;;;6103184;23;20160;-84
2023/11/15 13:08:20;;;;;;;3.63;0.52;;;18.50;56.70;;;;;;6124998;23;20132;-83
2023/11/15 13:10:46;;;;;;;1.83;0.52;;;18.50;56.90;;;;;;6101508;23;20152;-84
2023/11/15 13:13:12;;;;;;;5.57;0.50;;;18.50;56.70;;;;;;6100737;23;20564;-84
2023/11/15 13:15:38;;;;;;;2.95;0.47;;;18.50;56.70;;;;;;6152414;23;20207;-85
2023/11/15 13:18:06;;;;;;;3.80;0.77;;;18.50;56.60;;;;;;6158090;23;20384;-84
2023/11/15 13:20:35;;;;;;;1.75;0.50;;;18.50;56.70;;;;;;6155615;23;20691;-84
2023/11/15 13:23:01;;;;;;;2.28;0.77;;;18.50;56.50;;;;;;6157072;23;20499;-83
2023/11/15 13:25:27;;;;;;;3.47;0.40;;;18.50;56.60;;;;;;6158084;23;20136;-84
2023/11/15 13:27:53;;;;;;;2.53;0.55;;;18.50;56.80;;;;;;6161186;23;20646;-84
2023/11/15 13:30:20;;;;;;;3.30;0.50;;;18.50;56.40;;;;;;6159773;23;20170;-84
2023/11/15 13:32:49;;;;;;;1.58;0.40;;;18.50;56.40;;;;;;6157312;23;20171;-84